Date,TemperatureHighF,TemperatureAvgF,TemperatureLowF,DewpointHighF,DewpointAvgF,DewpointLowF,HumidityHigh,HumidityAvg,HumidityLow,PressureMaxIn,PressureMinIn,WindSpeedMaxMPH,WindSpeedAvgMPH,GustSpeedMaxMPH,PrecipitationSumIn
2014-1-1,70.1,49.8,32.0,47.0,37.5,28.0,91,65,39,30.22,29.95,20,4,21,0.00
2014-1-2,47.6,34.5,25.1,29.0,23.0,21.0,81,63,38,30.49,30.21,20,4,21,0.00
2014-1-3,56.6,40.0,25.0,29.0,22.1,18.0,83,52,22,30.41,30.02,20,5,21,0.00
2014-1-4,73.1,54.9,39.0,47.0,42.7,29.0,89,65,37,30.03,29.78,24,5,24,0.00
2014-1-5,54.4,34.4,24.6,45.0,22.2,11.0,78,59,43,30.47,29.82,18,6,26,0.00
2014-1-6,33.5,21.3,12.7,14.0,8.2,4.0,74,55,35,30.71,30.47,11,2,18,0.00
2014-1-7,47.4,31.5,13.9,26.0,16.2,8.0,85,54,28,30.54,30.25,20,5,20,0.00
2014-1-8,61.9,47.0,39.3,48.0,40.6,26.0,96,79,54,30.26,30.05,18,6,20,0.00
2014-1-9,62.4,49.9,40.8,54.0,45.6,38.0,100,86,59,30.20,29.99,11,3,11,0.00
2014-1-10,70.4,59.2,46.5,59.0,50.8,39.0,99,78,36,30.00,29.77,25,3,25,0.00
2014-1-11,67.7,50.3,34.8,41.0,31.0,24.0,88,53,19,30.21,29.88,12,2,12,0.00
2014-1-12,73.2,56.9,43.2,50.0,36.8,26.0,80,49,27,30.10,29.84,30,5,30,0.00
2014-1-13,62.4,51.2,34.1,52.0,28.5,16.0,84,45,17,30.17,29.89,22,3,22,0.00
2014-1-14,63.9,45.9,27.0,32.0,24.3,21.0,78,46,20,30.40,30.05,24,4,24,0.00
2014-1-15,59.0,43.3,31.1,28.0,22.5,16.0,61,44,27,30.46,30.12,13,2,13,0.00
2014-1-16,68.7,48.9,33.8,32.0,27.1,23.0,68,45,21,30.26,30.05,19,2,19,0.00
2014-1-17,58.1,46.3,38.7,28.0,20.8,16.0,54,37,21,30.40,30.22,9,2,13,0.00
2014-1-18,69.6,49.5,29.0,38.0,29.1,21.0,73,46,30,30.23,30.08,16,2,20,0.00
2014-1-19,69.2,51.7,32.8,31.0,26.1,23.0,69,39,18,30.35,30.09,10,3,15,0.00
2014-1-20,74.3,56.2,38.3,42.0,30.1,23.0,76,41,17,30.29,29.91,21,4,23,0.00
2014-1-21,56.7,45.3,34.8,26.0,23.1,18.0,57,41,27,30.48,30.19,19,3,24,0.00
2014-1-22,70.2,49.2,27.3,29.0,24.8,21.0,77,42,18,30.20,29.97,13,2,13,0.00
2014-1-23,48.9,34.0,23.2,32.0,17.7,0.0,70,49,34,30.69,30.06,19,8,28,0.00
2014-1-24,41.5,28.4,20.7,21.0,7.9,0.0,66,39,23,30.69,30.29,9,3,14,0.00
2014-1-25,67.5,45.8,27.0,28.0,22.8,16.0,71,43,20,30.29,28.65,13,2,13,0.00
2014-1-26,77.9,59.5,45.7,37.0,27.3,18.0,48,31,13,30.02,29.69,26,4,26,0.00
2014-1-27,52.2,38.5,27.5,29.0,12.6,0.0,61,33,24,30.28,29.85,26,7,26,0.00
2014-1-28,36.7,27.3,19.0,8.0,3.0,0.0,43,32,23,30.45,30.25,17,5,17,0.00
2014-1-29,46.2,30.9,12.4,18.0,12.8,4.0,75,47,27,30.42,30.15,16,4,17,0.00
2014-1-30,62.6,45.8,28.0,40.0,31.4,14.0,78,58,43,30.15,29.84,25,6,25,0.00
2014-1-31,77.8,60.0,42.8,56.0,46.4,40.0,96,65,34,29.93,29.79,18,5,18,0.00
2014-2-1,68.1,56.6,43.9,57.0,47.1,33.0,90,72,47,29.99,29.77,16,5,16,0.00
2014-2-2,43.8,32.2,28.1,33.0,28.9,26.0,96,87,65,30.26,28.77,20,6,20,0.21
2014-2-3,40.1,33.1,27.7,37.0,31.7,26.0,99,94,87,30.26,29.95,14,3,14,0.01
2014-2-4,63.8,44.9,36.0,44.0,38.6,33.0,100,82,37,30.15,29.85,19,4,21,0.06
2014-2-5,39.2,27.9,21.4,35.0,21.3,14.0,86,74,60,30.46,30.14,17,6,18,0.00
2014-2-6,23.1,19.8,16.1,16.0,13.9,11.0,78,74,69,30.50,30.33,14,4,15,0.00
2014-2-7,31.3,25.6,20.7,31.0,23.0,16.0,98,89,76,30.34,28.74,11,3,11,0.00
2014-2-8,73.4,49.4,30.8,40.0,33.2,29.0,100,63,21,30.19,28.71,21,4,21,0.00
2014-2-9,77.8,52.1,34.8,40.0,35.3,29.0,89,57,22,30.11,29.92,22,4,22,0.00
2014-2-10,40.5,31.8,25.8,38.0,30.0,24.0,96,91,85,30.26,30.10,17,6,17,0.00
2014-2-11,28.9,26.8,25.3,28.0,26.1,24.0,97,95,90,30.30,30.20,13,5,16,0.00
2014-2-12,54.2,37.5,27.5,35.0,29.9,26.0,96,76,47,30.24,30.07,13,2,13,0.00
2014-2-13,72.2,49.6,28.8,38.0,33.4,28.0,94,60,27,30.08,29.88,15,3,16,0.00
2014-2-14,74.3,56.6,39.7,40.0,32.4,24.0,74,43,23,30.14,29.82,23,4,25,0.00
2014-2-15,78.0,53.5,34.2,40.0,30.4,24.0,67,43,23,30.18,29.97,18,3,21,0.00
2014-2-16,79.8,60.0,43.9,58.0,51.7,39.0,100,77,45,30.08,29.91,17,4,17,0.00
2014-2-17,73.6,62.2,52.4,59.0,37.4,23.0,99,51,16,30.19,29.95,19,4,26,0.00
2014-2-18,80.5,62.4,46.8,59.0,44.3,24.0,88,53,32,30.16,29.88,19,4,19,0.00
2014-2-19,78.4,64.3,54.4,63.0,58.3,53.0,100,83,53,29.97,29.73,22,4,22,0.00
2014-2-20,73.6,62.0,43.8,61.0,43.5,24.0,93,58,18,30.15,29.71,23,5,23,0.00
2014-2-21,68.0,51.0,29.9,31.0,25.2,23.0,78,41,19,30.21,29.99,21,4,21,0.00
2014-2-22,80.3,60.5,45.7,54.0,41.9,26.0,83,52,34,30.03,29.82,18,6,18,0.00
2014-2-23,76.9,60.3,50.3,57.0,47.0,36.0,99,67,27,30.13,29.91,17,4,17,0.00
2014-2-24,71.3,56.2,43.8,56.0,46.7,38.0,88,72,56,30.17,30.00,11,3,11,0.00
2014-2-25,58.9,50.9,41.8,59.0,50.0,37.0,100,97,80,30.15,30.00,14,4,15,0.03
2014-2-26,43.5,35.8,26.3,37.0,24.0,18.0,86,62,39,30.32,30.14,24,5,24,0.00
2014-2-27,59.5,41.2,22.3,38.0,26.5,18.0,86,58,34,30.18,29.86,16,3,17,0.00
2014-2-28,84.2,59.8,39.3,46.0,32.4,23.0,89,46,11,29.89,29.75,28,5,28,0.00
2014-3-1,87.0,67.4,45.8,62.0,47.9,28.0,80,52,27,30.00,29.83,22,5,23,0.00
2014-3-2,68.5,31.8,18.1,62.0,29.0,16.0,97,89,72,30.33,29.90,22,7,23,0.00
2014-3-3,38.8,25.8,13.7,18.0,14.8,8.0,85,63,42,30.43,30.23,19,5,19,0.00
2014-3-4,56.2,40.3,25.3,36.0,26.6,18.0,81,58,39,30.24,29.98,15,3,15,0.00
2014-3-5,60.2,47.3,36.7,43.0,38.9,35.0,93,74,52,30.20,29.95,13,4,14,0.00
2014-3-6,63.2,46.9,38.5,39.0,35.7,32.0,88,67,34,30.29,30.06,9,3,12,0.00
2014-3-7,73.0,54.8,39.8,44.0,39.9,33.0,86,61,30,30.06,29.82,23,6,23,0.00
2014-3-8,53.3,47.5,40.0,48.0,38.0,31.0,88,70,52,30.32,29.87,18,5,18,0.00
2014-3-9,64.8,47.0,30.3,39.0,33.8,26.0,88,62,37,30.38,30.20,14,2,14,0.00
2014-3-10,74.3,56.8,38.7,54.0,44.5,35.0,91,66,43,30.23,29.92,18,3,18,0.00
2014-3-11,87.3,67.4,52.3,54.0,44.3,23.0,95,55,12,29.93,29.60,30,6,30,0.00
2014-3-12,62.6,50.7,41.0,36.0,26.9,21.0,67,42,23,30.35,29.87,23,7,33,0.00
2014-3-13,67.3,50.7,28.1,26.0,22.9,18.0,72,37,16,30.36,30.08,18,3,18,0.00
2014-3-14,75.8,59.6,44.5,52.0,42.6,26.0,80,55,37,30.09,29.93,19,5,20,0.00
2014-3-15,75.6,64.3,56.0,61.0,56.0,49.0,93,77,48,30.00,29.69,20,4,22,0.01
2014-3-16,56.5,49.6,44.0,54.0,39.1,31.0,95,68,51,30.13,29.79,20,8,27,0.00
2014-3-17,68.3,49.4,30.2,31.0,26.3,24.0,81,45,21,30.12,29.72,16,4,16,0.00
2014-3-18,88.9,68.1,48.6,35.0,23.4,4.0,42,23,6,29.93,29.63,24,7,27,0.00
2014-3-19,66.3,54.7,41.9,31.0,28.1,18.0,57,37,16,30.26,29.92,23,5,23,0.00
2014-3-20,76.2,58.1,34.9,37.0,29.3,24.0,67,36,17,30.26,30.02,11,3,14,0.00
2014-3-21,78.8,65.9,52.7,57.0,49.2,37.0,75,56,43,30.03,29.83,18,5,25,0.00
2014-3-22,67.3,61.2,51.7,59.0,52.8,43.0,92,75,61,30.12,29.91,11,3,13,0.00
2014-3-23,51.5,45.7,39.1,43.0,37.4,31.0,92,73,51,30.37,30.12,15,4,22,0.12
2014-3-24,68.0,53.3,42.7,49.0,43.6,39.0,91,72,50,30.27,30.04,11,1,11,0.00
2014-3-25,64.8,53.2,41.9,48.0,34.6,26.0,93,53,28,30.39,28.93,18,5,18,0.00
2014-3-26,60.0,55.4,47.9,55.0,43.4,26.0,85,65,39,30.22,29.91,28,8,28,0.01
2014-3-27,87.3,71.2,59.9,61.0,50.7,35.0,91,57,16,29.92,29.73,23,6,23,0.00
2014-3-28,85.3,68.4,55.3,65.0,50.4,33.0,95,61,17,30.12,29.80,26,4,28,0.00
2014-3-29,75.3,59.9,42.6,42.0,34.3,26.0,81,45,17,30.33,30.12,16,4,16,0.00
2014-3-30,80.9,64.8,45.7,50.0,38.0,32.0,68,41,18,30.23,29.95,24,7,27,0.00
2014-3-31,87.3,70.1,55.5,59.0,54.0,49.0,88,60,29,29.98,29.84,18,6,19,0.00
2014-4-1,85.2,72.6,60.3,64.0,60.3,56.0,96,68,41,30.01,29.82,22,7,23,0.00
2014-4-2,79.8,73.0,68.4,69.0,65.3,63.0,87,78,65,29.88,29.71,18,6,21,0.00
2014-4-3,90.1,76.3,68.9,69.0,60.4,18.0,95,65,13,29.95,28.26,32,5,34,0.00
2014-4-4,69.7,57.5,43.8,36.0,30.4,18.0,62,38,14,30.23,29.93,23,6,23,0.00
2014-4-5,61.2,54.4,49.1,41.0,35.1,31.0,62,48,35,30.15,29.90,24,4,26,0.03
2014-4-6,56.3,50.9,47.3,50.0,46.5,41.0,97,86,60,29.94,29.79,15,4,16,0.10
2014-4-7,68.3,50.6,42.0,52.0,47.2,42.0,100,90,49,30.11,29.83,24,2,24,0.20
2014-4-8,75.8,58.8,42.6,47.0,37.8,31.0,97,53,20,30.27,30.10,24,4,24,0.00
2014-4-9,86.9,68.1,49.0,39.0,35.6,29.0,60,34,13,30.25,30.02,17,5,17,0.00
2014-4-10,91.8,74.9,60.3,51.0,46.7,38.0,68,40,21,30.08,29.86,22,7,22,0.00
2014-4-11,90.2,73.3,56.3,59.0,55.8,50.0,94,59,28,30.02,29.87,18,5,18,0.00
2014-4-12,85.3,72.9,61.4,63.0,59.5,56.0,91,65,41,29.97,29.77,21,8,23,0.00
2014-4-13,78.3,69.0,64.5,67.0,63.6,60.0,98,85,64,29.87,29.67,20,5,20,0.50
2014-4-14,67.1,51.3,42.1,65.0,38.0,26.0,96,62,39,30.31,29.73,25,7,27,0.00
2014-4-15,65.7,48.0,27.8,31.0,24.5,18.0,88,45,17,30.39,30.11,11,3,11,0.00
2014-4-16,72.2,56.2,40.0,47.0,33.6,26.0,67,44,26,30.12,29.89,21,7,23,0.00
2014-4-17,61.0,57.4,54.0,57.0,53.4,47.0,95,87,67,30.22,29.97,17,4,18,0.00
2014-4-18,75.3,63.6,55.4,58.0,54.0,50.0,99,75,43,30.27,30.12,11,2,11,0.00
2014-4-19,75.0,66.1,55.3,57.0,53.0,50.0,87,65,46,30.20,30.05,16,4,16,0.00
2014-4-20,70.7,65.5,61.2,63.0,58.8,54.0,98,80,66,30.15,30.05,16,4,16,0.13
2014-4-21,88.8,73.6,63.8,66.0,62.0,54.0,98,72,31,30.08,29.93,15,4,15,0.00
2014-4-22,83.1,71.7,59.7,61.0,55.0,48.0,92,60,32,30.12,29.95,16,3,16,0.00
2014-4-23,89.2,74.4,58.9,63.0,58.6,53.0,89,61,34,30.00,29.73,23,6,23,0.00
2014-4-24,84.4,73.8,63.5,64.0,49.9,36.0,86,50,20,30.00,29.77,21,5,21,0.00
2014-4-25,87.5,71.6,48.9,57.0,45.1,38.0,75,42,22,30.07,29.87,17,4,19,0.00
2014-4-26,86.0,74.2,64.1,67.0,62.2,57.0,90,69,45,29.92,29.65,25,6,25,0.00
2014-4-27,91.2,79.0,65.3,69.0,49.7,29.0,91,47,13,29.67,29.51,28,7,29,0.00
2014-4-28,86.8,70.3,48.4,36.0,30.2,24.0,54,25,13,29.79,29.64,26,4,26,0.00
2014-4-29,76.2,66.0,53.7,40.0,31.6,24.0,51,29,15,30.07,29.71,22,5,24,0.00
2014-4-30,70.5,59.2,49.3,36.0,32.0,28.0,50,36,24,30.23,30.06,20,4,20,0.00
2014-5-1,77.0,60.2,39.3,37.0,29.3,26.0,73,35,16,30.23,30.06,15,2,15,0.00
2014-5-2,80.3,62.7,42.8,36.0,30.4,23.0,64,33,13,30.14,29.96,19,3,23,0.00
2014-5-3,93.0,70.0,45.2,36.0,30.1,24.0,54,27,9,30.10,29.98,14,2,14,0.00
2014-5-4,92.8,76.2,53.5,40.0,35.1,32.0,47,25,12,30.10,29.93,22,4,22,0.00
2014-5-5,73.2,64.4,58.6,54.0,45.8,39.0,76,54,30,30.00,29.96,12,3,12,0.00
2014-5-7,89.2,81.4,73.5,65.0,62.3,60.0,73,54,39,29.84,29.72,25,10,27,0.00
2014-5-8,84.2,74.5,69.2,69.0,65.9,57.0,89,76,54,29.91,29.77,25,5,25,0.11
2014-5-9,86.7,75.6,67.8,70.0,56.1,32.0,100,60,15,29.99,29.83,10,2,10,0.00
2014-5-10,94.1,76.0,57.6,64.0,58.4,54.0,93,59,27,29.97,29.75,22,5,23,0.00
2014-5-11,91.9,78.8,67.7,67.0,63.5,60.0,87,63,35,29.86,29.67,27,9,27,0.00
2014-5-12,86.8,70.8,59.4,71.0,63.7,52.0,94,79,57,30.04,29.76,21,6,23,0.57
2014-5-13,65.3,56.1,49.1,52.0,45.5,39.0,94,69,45,30.34,30.01,26,6,27,0.15
2014-5-14,73.0,58.8,45.7,48.0,40.1,31.0,96,58,22,30.35,30.21,22,4,22,0.01
2014-5-15,83.8,63.1,40.1,47.0,35.4,23.0,96,47,11,30.31,30.10,17,2,17,0.00
2014-5-16,90.2,73.2,50.0,44.0,37.1,32.0,63,29,14,30.17,29.93,16,5,23,0.00
2014-5-17,88.3,74.9,60.8,56.0,49.1,33.0,64,42,25,30.03,29.90,21,5,21,0.00
2014-5-18,85.1,72.9,60.4,59.0,56.6,50.0,89,59,39,30.10,29.96,20,7,20,0.00
2014-5-19,87.2,74.3,62.1,61.0,58.0,56.0,86,60,37,30.06,29.92,24,8,24,0.00
2014-5-20,86.7,75.3,62.6,61.0,58.5,55.0,90,59,36,30.08,29.97,24,7,24,0.00
2014-5-21,87.8,77.3,67.1,64.0,60.9,58.0,84,60,38,30.10,29.98,16,7,23,0.00
2014-5-22,86.3,76.1,65.4,66.0,63.5,59.0,90,67,47,30.12,29.99,20,6,20,0.00
2014-5-23,82.1,73.8,67.3,66.0,64.2,61.0,89,73,55,30.11,29.99,20,5,20,0.00
2014-5-24,78.5,72.3,64.5,71.0,67.0,61.0,93,84,70,30.11,29.96,20,5,20,0.16
2014-5-25,71.8,65.2,62.9,69.0,63.9,62.0,100,97,87,30.12,28.66,18,4,19,3.39
2014-5-26,78.3,68.4,60.5,66.0,61.9,57.0,99,82,58,30.14,28.64,27,5,30,0.30
2014-5-27,82.4,68.5,58.6,69.0,64.4,57.0,100,89,65,30.10,29.88,15,3,19,0.13
2014-5-28,82.0,71.4,60.9,67.0,63.4,60.0,100,79,54,30.02,29.93,15,3,15,0.00
2014-5-29,86.7,74.2,61.4,67.0,62.9,60.0,98,71,44,30.00,29.90,14,2,14,0.00
2014-5-30,89.7,76.1,63.2,69.0,64.2,61.0,96,70,40,29.96,29.88,16,2,16,0.00
2014-5-31,88.5,77.9,66.2,69.0,65.6,63.0,95,69,46,30.01,29.92,16,2,16,0.00
2014-6-1,88.0,78.2,68.1,71.0,68.0,66.0,97,73,51,30.02,29.87,15,4,16,0.00
2014-6-2,87.1,78.1,69.1,69.0,66.7,65.0,91,70,51,30.03,29.90,20,6,20,0.00
2014-6-3,86.9,78.0,69.9,69.0,67.9,66.0,97,73,52,30.08,29.95,17,5,17,0.00
2014-6-4,90.2,79.7,69.7,71.0,68.7,66.0,98,72,50,29.97,29.84,16,5,16,0.00
2014-6-5,89.6,79.3,68.8,71.0,69.2,67.0,97,73,53,29.90,29.82,22,6,22,0.00
2014-6-6,88.6,79.8,70.6,71.0,68.1,66.0,93,70,50,30.00,29.85,22,6,22,0.00
2014-6-7,90.0,80.8,70.7,69.0,67.4,65.0,90,66,47,30.02,29.87,21,6,21,0.00
2014-6-8,84.0,75.6,65.8,72.0,68.9,63.0,96,81,68,30.09,29.82,20,4,20,0.07
2014-6-9,80.7,72.4,60.1,71.0,65.2,58.0,97,80,58,29.95,29.79,32,3,36,0.79
2014-6-10,86.3,72.5,58.5,63.0,58.9,54.0,91,65,38,30.00,29.90,17,3,18,0.00
2014-6-11,93.1,78.2,63.1,71.0,64.4,59.0,89,66,40,30.00,29.78,27,4,27,0.14
2014-6-12,89.0,80.0,70.9,74.0,69.5,59.0,82,71,56,30.00,29.77,17,5,17,0.00
2014-6-13,86.8,77.2,66.8,71.0,68.4,65.0,98,76,57,30.06,29.94,15,3,15,0.00
2014-6-14,86.0,75.5,65.4,71.0,68.2,63.0,99,80,60,30.08,29.84,18,5,19,0.77
2014-6-15,89.0,80.3,71.9,71.0,69.2,66.0,91,71,54,29.98,29.86,20,7,21,0.00
2014-6-16,89.6,80.9,72.0,71.0,68.6,65.0,91,68,46,30.05,29.94,20,7,21,0.00
2014-6-17,89.3,80.7,74.6,72.0,69.9,66.0,88,71,51,30.05,29.93,22,7,22,0.00
2014-6-18,88.0,79.4,73.6,74.0,69.6,66.0,89,74,56,30.04,29.93,19,7,23,0.00
2014-6-19,87.1,80.6,73.0,72.0,69.2,66.0,88,70,53,30.09,29.98,17,5,17,0.00
2014-6-20,87.0,78.6,71.5,70.0,66.9,64.0,88,69,49,30.15,30.04,13,3,13,0.00
2014-6-21,86.2,77.5,70.7,73.0,68.6,63.0,95,76,50,30.10,29.95,16,3,16,0.04
2014-6-22,86.1,78.9,74.3,73.0,70.2,66.0,86,76,63,29.99,29.86,18,5,18,0.00
2014-6-23,88.2,77.0,65.3,72.0,68.9,63.0,98,78,54,30.08,28.51,20,3,22,0.32
2014-6-24,87.6,76.4,70.8,73.0,69.1,64.0,96,80,50,30.13,30.01,16,3,18,0.10
2014-6-25,88.6,75.3,69.6,74.0,70.3,64.0,99,86,57,30.10,29.98,17,3,18,0.02
2014-6-26,89.2,77.2,67.7,71.0,68.9,67.0,100,79,51,30.08,29.88,16,4,16,0.00
2014-6-27,90.1,80.2,73.4,71.0,69.4,67.0,87,71,49,29.95,29.80,23,8,24,0.00
2014-6-28,89.6,81.7,75.6,72.0,70.9,69.0,86,71,54,29.96,29.86,23,8,24,0.00
2014-6-29,93.5,83.6,74.3,73.0,70.0,66.0,90,66,44,30.05,29.96,22,7,22,0.00
2014-6-30,95.8,83.4,70.4,72.0,66.4,57.0,93,61,29,30.04,29.88,25,8,28,0.00
2014-7-1,93.7,82.8,71.5,72.0,65.9,59.0,91,61,33,30.05,29.91,19,5,19,0.00
2014-7-2,96.2,82.6,70.3,70.0,64.4,49.0,90,59,21,30.13,30.03,17,3,17,0.00
2014-7-3,91.9,79.0,70.8,69.0,65.8,62.0,84,66,39,30.20,30.11,22,4,22,0.00
2014-7-4,91.8,79.4,66.8,69.0,65.7,62.0,94,67,40,30.25,30.15,17,4,17,0.00
2014-7-5,94.0,80.9,67.8,69.0,64.6,61.0,90,61,37,30.24,30.08,17,4,20,0.00
2014-7-6,94.0,82.0,69.0,71.0,65.6,62.0,93,61,37,30.13,29.97,15,4,15,0.00
2014-7-7,97.5,84.7,71.7,68.0,61.5,54.0,83,50,24,30.07,29.95,16,4,17,0.00
2014-7-8,97.0,84.8,71.4,70.0,63.5,56.0,85,53,30,30.10,30.00,18,4,18,0.00
2014-7-9,95.9,84.0,71.1,69.0,63.3,57.0,81,53,32,30.13,29.98,16,4,17,0.00
2014-7-10,94.8,82.8,69.2,69.0,61.8,56.0,88,53,30,30.13,29.98,21,4,21,0.00
2014-7-11,92.0,79.9,69.8,68.0,62.7,55.0,83,59,30,30.18,30.08,21,5,21,0.00
2014-7-12,95.6,82.3,65.8,66.0,58.1,50.0,90,49,23,30.23,30.07,18,4,18,0.00
2014-7-13,98.5,85.2,69.8,69.0,61.1,56.0,80,48,26,30.18,30.01,13,3,14,0.00
2014-7-14,102.2,85.9,69.5,68.0,62.6,56.0,78,50,23,30.11,29.95,14,3,14,0.01
2014-7-15,91.1,79.0,68.0,69.0,67.3,64.0,98,70,47,30.10,30.00,30,4,30,0.48
2014-7-16,88.8,76.8,68.4,73.0,69.6,66.0,98,81,53,30.08,29.89,17,4,17,0.35
2014-7-17,78.6,74.1,71.5,74.0,72.0,71.0,99,94,83,29.98,29.89,11,3,11,0.54
2014-7-18,77.6,71.8,67.4,72.0,66.7,64.0,99,86,68,30.08,29.98,13,4,15,0.00
2014-7-19,87.9,74.3,63.5,71.0,67.0,63.0,99,81,55,30.10,29.98,10,3,10,0.00
2014-7-20,92.8,80.2,69.0,75.0,70.5,67.0,97,75,50,30.10,29.95,14,4,14,0.00
2014-7-21,94.1,84.3,75.2,76.0,72.2,68.0,96,70,45,30.10,30.00,16,4,16,0.00
2014-7-22,95.7,84.3,74.8,73.0,70.0,66.0,91,65,41,30.13,30.05,13,2,13,0.00
2014-7-23,94.5,83.7,73.0,74.0,68.6,63.0,89,64,38,30.17,30.05,14,2,14,0.00
2014-7-24,94.3,83.3,71.7,71.0,67.5,65.0,88,62,40,30.13,30.00,14,3,14,0.00
2014-7-25,95.8,83.4,68.6,71.0,67.1,62.0,94,62,37,30.11,29.96,15,3,15,0.00
2014-7-26,97.7,85.5,72.2,71.0,66.8,63.0,88,57,36,30.08,29.95,16,4,17,0.00
2014-7-27,99.3,86.7,73.7,69.0,66.0,61.0,85,53,33,30.11,30.02,14,4,14,0.00
2014-7-28,97.2,84.9,72.8,71.0,67.4,63.0,83,58,36,30.20,30.08,19,4,21,0.00
2014-7-29,92.8,81.7,72.9,71.0,67.9,66.0,83,64,46,30.19,30.06,19,4,20,0.00
2014-7-30,98.5,84.7,73.6,71.0,62.3,54.0,85,53,24,30.10,29.91,21,5,21,0.00
2014-7-31,84.2,77.5,71.6,68.0,64.2,57.0,84,65,43,30.11,29.97,14,4,16,0.00
2014-8-1,88.7,76.3,63.8,65.0,62.3,58.0,94,65,39,30.13,30.02,15,4,16,0.00
2014-8-2,90.3,76.6,64.5,66.0,62.3,59.0,96,65,36,30.17,30.05,16,4,16,0.00
2014-8-3,92.3,78.7,65.4,67.0,61.7,55.0,90,60,30,30.17,30.03,16,3,16,0.00
2014-8-4,93.8,81.1,68.4,70.0,64.5,60.0,92,61,34,30.14,30.01,15,3,15,0.00
2014-8-5,97.2,84.1,71.4,70.0,64.6,56.0,89,56,28,30.15,30.01,13,3,14,0.00
2014-8-6,99.3,86.4,74.0,70.0,64.9,56.0,84,53,24,30.10,29.94,14,4,14,0.00
2014-8-7,101.5,87.9,74.9,71.0,64.3,60.0,78,49,27,30.01,29.86,16,4,17,0.00
2014-8-8,101.3,88.6,76.1,71.0,64.2,57.0,82,48,25,30.03,29.89,19,4,22,0.00
2014-8-9,100.0,87.6,75.4,69.0,61.9,55.0,77,46,24,30.08,29.95,12,4,15,0.00
2014-8-10,100.1,87.7,72.8,69.0,62.5,57.0,78,46,26,30.11,29.97,16,3,16,0.00
2014-8-11,98.4,80.1,71.8,72.0,67.5,63.0,97,69,33,30.16,30.05,31,3,35,0.96
2014-8-12,93.8,80.3,69.9,75.0,67.2,54.0,100,70,33,30.17,30.04,17,2,17,0.01
2014-8-13,93.6,79.0,63.5,64.0,60.3,57.0,94,57,31,30.18,30.05,13,2,14,0.00
2014-8-14,95.5,81.8,66.6,64.0,60.3,57.0,85,51,31,30.14,29.99,14,3,16,0.00
2014-8-15,98.8,84.5,70.8,69.0,62.5,57.0,79,51,27,30.08,29.90,17,3,17,0.00
2014-8-16,100.6,86.7,70.8,72.0,62.6,56.0,82,49,24,30.02,29.89,16,3,16,0.00
2014-8-17,90.0,81.8,74.9,72.0,67.3,60.0,81,63,44,30.07,29.95,23,3,23,0.00
2014-8-18,86.3,76.4,71.7,73.0,69.7,65.0,94,81,60,30.06,29.93,12,2,12,0.06
2014-8-19,89.3,79.0,71.0,72.0,68.4,61.0,98,74,41,30.02,29.89,19,4,23,0.03
2014-8-20,96.1,84.5,73.4,71.0,64.5,59.0,86,55,30,30.03,29.92,21,6,21,0.00
2014-8-21,97.7,86.2,75.5,73.0,65.7,57.0,85,55,28,30.09,29.98,22,6,22,0.00
2014-8-22,99.1,86.4,73.6,72.0,61.7,49.0,90,50,19,30.12,29.98,19,5,21,0.00
2014-8-23,97.1,83.9,69.8,66.0,61.4,57.0,74,49,30,30.08,29.93,19,3,19,0.00
2014-8-24,99.3,85.8,72.2,70.0,63.1,56.0,82,51,25,30.03,29.89,15,4,16,0.00
2014-8-25,99.5,86.9,73.2,69.0,62.7,56.0,80,48,28,30.05,29.92,14,3,14,0.00
2014-8-26,98.8,86.3,72.1,68.0,64.2,60.0,74,50,30,30.10,29.97,18,3,19,0.00
2014-8-27,94.2,84.3,73.4,71.0,66.3,60.0,85,57,37,30.12,29.99,14,3,14,0.00
2014-8-28,96.3,84.1,68.4,69.0,62.8,57.0,78,51,29,30.05,29.86,17,4,17,0.00
2014-8-29,94.3,80.8,68.6,71.0,68.3,64.0,97,69,39,30.00,29.88,15,4,16,0.08
2014-8-30,95.7,81.7,71.7,73.0,68.9,64.0,94,69,37,30.03,29.92,18,3,19,0.00
2014-8-31,96.8,83.7,71.8,71.0,67.7,63.0,91,62,35,30.04,29.90,17,4,17,0.00
2014-9-1,97.9,85.7,73.8,71.0,67.0,63.0,86,57,33,29.98,29.87,19,6,20,0.00
2014-9-2,97.7,86.5,74.3,71.0,67.9,62.0,86,57,33,30.02,29.91,17,6,20,0.00
2014-9-3,94.7,82.7,73.4,71.0,68.0,63.0,86,64,37,30.06,29.96,28,6,30,0.00
2014-9-4,94.5,80.8,69.3,71.0,67.3,64.0,97,67,37,30.11,29.99,18,5,21,0.05
2014-9-5,95.7,82.5,72.0,73.0,67.4,59.0,96,65,34,30.15,29.99,16,4,16,0.00
2014-9-6,93.5,79.8,68.9,71.0,67.6,65.0,90,69,42,30.15,30.03,15,3,18,0.00
2014-9-7,83.3,73.5,67.4,71.0,67.6,66.0,97,84,63,30.18,30.06,10,3,11,0.05
2014-9-8,95.4,80.3,66.1,72.0,66.4,63.0,98,68,35,30.12,29.97,12,2,14,0.00
2014-9-9,97.3,84.4,72.2,71.0,66.2,63.0,86,58,34,30.05,29.87,17,4,19,0.00
2014-9-10,101.8,87.5,74.7,71.0,67.3,64.0,85,55,31,29.92,29.80,17,6,20,0.00
2014-9-11,93.1,82.0,73.2,72.0,68.7,64.0,84,65,50,30.07,29.88,19,3,19,0.00
2014-9-12,77.5,69.4,59.0,69.0,64.1,55.0,94,84,69,30.27,30.05,18,6,20,0.00
2014-9-13,71.5,60.6,53.9,57.0,54.5,52.0,97,82,60,30.33,30.21,21,4,21,0.02
2014-9-14,83.8,71.6,62.7,65.0,60.8,56.0,87,71,53,30.28,30.15,11,2,11,0.00
2014-9-15,84.3,74.7,67.6,69.0,66.3,64.0,96,77,56,30.21,30.11,11,2,11,0.01
2014-9-16,90.4,79.2,70.2,72.0,68.2,65.0,93,72,44,30.18,30.02,10,2,13,0.00
2014-9-17,95.0,78.8,72.3,73.0,69.9,65.0,95,78,39,30.08,29.89,17,3,20,0.37
2014-9-18,87.4,74.2,69.0,74.0,70.9,68.0,100,91,60,29.99,28.46,14,2,16,1.84
2014-9-19,78.5,72.7,70.7,73.0,71.2,70.0,100,96,82,30.03,29.95,9,2,10,0.05
2014-9-20,83.9,76.5,72.1,73.0,71.9,70.0,100,87,67,30.08,29.98,11,3,11,0.00
2014-9-21,87.3,77.9,69.9,73.0,68.0,64.0,97,74,49,30.18,30.06,11,2,14,0.00
2014-9-22,87.8,76.4,66.2,70.0,66.3,63.0,97,74,48,30.24,30.12,12,2,14,0.00
2014-9-23,86.3,73.7,62.7,64.0,57.6,54.0,81,59,41,30.23,28.77,13,3,13,0.00
2014-9-24,84.0,70.4,57.4,57.0,53.5,47.0,89,58,30,30.23,30.12,12,2,12,0.00
2014-9-25,84.2,69.9,55.2,65.0,56.1,50.0,92,65,36,30.24,30.13,13,2,14,0.00
2014-9-26,81.0,72.9,65.3,65.0,63.3,61.0,94,73,54,30.20,30.08,15,2,16,0.00
2014-9-27,80.5,72.6,66.9,66.0,62.8,59.0,92,73,49,30.14,30.04,14,2,14,0.00
2014-9-28,82.4,72.6,62.0,68.0,61.9,59.0,98,72,48,30.14,30.03,11,2,13,0.00
2014-9-29,86.8,74.8,63.9,63.0,59.2,56.0,86,61,37,30.10,29.95,7,2,10,0.00
2014-9-30,90.1,75.9,60.0,65.0,60.8,57.0,93,63,38,29.97,29.81,14,3,14,0.00
2014-10-1,93.3,79.6,68.0,71.0,66.6,63.0,96,68,40,29.89,29.78,15,4,16,0.00
2014-10-2,95.5,80.5,70.8,73.0,63.7,52.0,94,61,27,30.04,29.82,22,4,22,0.00
2014-10-3,84.3,70.3,51.8,56.0,47.0,39.0,89,48,22,30.27,30.04,12,3,14,0.00
2014-10-4,80.2,65.8,48.0,51.0,45.6,39.0,85,52,26,30.28,30.00,14,3,16,0.00
2014-10-5,86.7,71.0,53.5,63.0,57.7,47.0,91,65,44,30.01,29.82,13,4,16,0.00
2014-10-6,91.0,76.9,63.5,69.0,65.1,62.0,98,70,39,29.98,29.86,15,3,15,0.00
2014-10-7,96.8,79.5,62.6,71.0,61.5,50.0,99,62,22,30.02,29.90,18,4,18,0.00
2014-10-8,90.4,78.4,68.2,70.0,63.6,59.0,96,64,37,30.08,29.96,19,5,19,0.00
2014-10-9,91.0,79.1,70.3,70.0,64.7,60.0,95,65,38,30.03,29.89,22,6,24,0.00
2014-10-10,90.8,79.2,65.8,69.0,65.5,61.0,91,66,42,30.02,29.88,20,5,21,0.00
2014-10-11,65.8,57.7,52.2,62.0,53.7,50.0,97,88,71,30.20,30.02,19,3,19,0.30
2014-10-12,82.3,64.9,51.8,67.0,59.6,51.0,100,85,60,30.11,29.74,22,4,22,0.00
2014-10-13,73.0,63.8,52.1,70.0,52.2,41.0,98,69,41,30.13,29.68,31,5,31,0.73
2014-10-14,77.2,61.6,49.1,47.0,42.0,37.0,83,53,25,30.24,30.11,20,3,20,0.00
2014-10-15,85.2,63.5,45.5,52.0,45.1,40.0,94,58,22,30.19,30.04,13,1,13,0.00
2014-10-16,89.5,69.0,48.4,49.0,46.0,41.0,85,48,22,30.05,29.89,14,2,14,0.00
2014-10-17,91.2,71.1,50.9,56.0,50.6,44.0,83,52,27,30.02,29.92,11,2,11,0.00
2014-10-18,83.1,70.3,58.5,62.0,58.4,54.0,91,68,46,30.14,30.01,11,3,11,0.00
2014-10-19,79.3,68.6,59.9,65.0,60.7,58.0,96,78,52,30.18,30.06,13,3,13,0.00
2014-10-20,80.1,68.3,59.4,65.0,59.3,56.0,99,77,45,30.17,30.04,9,2,9,0.00
2014-10-21,80.5,67.2,52.8,62.0,54.3,47.0,98,67,37,30.16,30.04,13,2,13,0.00
2014-10-22,80.0,70.2,61.4,59.0,54.5,47.0,80,59,41,30.19,30.09,14,3,14,0.00
2014-10-23,82.3,70.5,59.2,63.0,60.0,55.0,91,71,48,30.20,30.08,10,2,11,0.00
2014-10-24,87.2,71.5,55.9,62.0,58.8,54.0,98,69,37,30.23,30.11,14,2,14,0.00
2014-10-25,88.8,72.4,55.0,63.0,57.6,54.0,97,64,31,30.23,30.10,13,2,13,0.00
2014-10-26,86.6,71.6,56.0,60.0,54.2,50.0,90,59,29,30.12,29.92,17,4,20,0.00
2014-10-27,85.5,71.3,57.9,62.0,58.0,52.0,96,66,43,29.95,29.84,19,4,19,0.00
2014-10-28,80.3,69.6,62.2,59.0,55.0,49.0,84,62,43,30.17,29.92,11,3,11,0.00
2014-10-29,79.3,66.8,58.2,56.0,51.8,48.0,75,60,41,30.26,30.14,12,3,12,0.00
2014-10-30,81.9,67.3,57.6,64.0,57.5,50.0,89,73,49,30.23,30.08,12,3,12,0.00
2014-10-31,71.0,61.4,50.6,63.0,44.7,36.0,93,59,29,30.39,30.22,18,4,18,0.01
2014-11-1,65.6,51.8,36.4,41.0,38.1,33.0,91,62,37,30.42,30.26,15,4,15,0.00
2014-11-2,70.5,59.6,48.1,54.0,49.0,39.0,88,70,51,30.32,30.16,22,6,23,0.00
2014-11-3,72.3,66.8,60.9,62.0,58.4,51.0,83,75,67,30.18,30.08,21,7,21,0.00
2014-11-4,69.0,59.9,52.7,65.0,58.3,53.0,100,95,79,30.27,30.07,24,5,24,1.03
2014-11-5,55.0,52.7,50.5,55.0,52.5,50.0,100,99,98,30.31,30.19,13,3,13,0.55
2014-11-6,69.1,56.4,44.5,52.0,46.5,40.0,100,73,37,30.41,30.30,14,3,14,0.01
2014-11-7,70.6,54.8,40.5,50.0,42.1,38.0,99,67,34,30.34,30.08,12,2,12,0.00
2014-11-8,69.6,56.5,44.3,52.0,44.6,39.0,98,68,38,30.26,30.07,19,3,22,0.00
2014-11-9,76.6,56.7,37.9,48.0,41.7,37.0,98,64,27,30.23,29.92,14,3,16,0.00
2014-11-10,80.9,65.2,51.9,55.0,50.2,43.0,82,61,37,29.93,29.71,22,6,23,0.00
2014-11-11,60.9,43.7,34.9,56.0,31.1,24.0,86,61,45,30.28,29.80,22,5,25,0.00
2014-11-12,42.7,34.3,29.6,26.0,18.9,14.0,69,52,39,30.49,30.27,18,6,18,0.00
2014-11-13,35.6,30.5,25.7,16.0,10.4,8.0,63,41,30,30.59,30.45,14,4,18,0.00
2014-11-14,44.2,34.4,28.2,24.0,17.4,11.0,66,47,38,30.47,30.23,9,3,11,0.00
2014-11-15,56.0,43.9,31.9,47.0,35.5,23.0,98,72,58,30.23,30.01,17,5,17,0.00
2014-11-16,49.2,40.3,26.0,49.0,39.7,24.0,100,97,91,30.32,29.94,19,4,22,0.01
2014-11-17,47.0,32.2,20.2,26.0,20.9,16.0,97,67,28,30.47,30.30,15,3,15,0.00
2014-11-18,56.6,38.8,19.6,28.0,20.0,16.0,93,53,22,30.52,30.32,18,3,18,0.00
2014-11-19,68.8,47.6,25.6,40.0,30.6,18.0,78,54,25,30.34,30.14,17,2,19,0.00
2014-11-20,74.8,54.9,36.0,55.0,45.8,35.0,99,76,35,30.17,29.99,18,3,18,0.00
2014-11-21,75.9,64.8,55.3,63.0,58.5,54.0,98,83,50,30.14,30.01,16,4,16,0.00
2014-11-22,64.3,60.9,52.2,63.0,60.1,52.0,100,98,96,30.08,28.41,22,5,26,0.26
2014-11-23,74.6,58.9,44.8,56.0,44.1,33.0,100,66,25,29.96,29.56,25,5,25,0.01
2014-11-24,58.7,44.9,33.4,38.0,32.7,24.0,94,67,28,30.22,29.96,12,2,12,0.00
2014-11-25,61.7,43.7,30.6,35.0,31.2,28.0,94,65,29,30.39,30.18,22,2,22,0.00
2014-11-26,66.8,50.6,35.2,37.0,31.9,26.0,78,51,27,30.41,30.14,16,3,16,0.00
2014-11-27,60.4,48.5,35.8,37.0,31.9,28.0,76,54,33,30.57,30.36,12,3,14,0.00
2014-11-28,72.3,54.2,35.2,51.0,41.8,31.0,88,65,39,30.37,30.07,19,4,19,0.00
2014-11-29,76.1,62.2,50.2,56.0,50.6,46.0,92,69,40,30.08,29.93,17,5,21,0.00
2014-11-30,76.5,65.1,54.8,60.0,56.8,52.0,96,77,48,30.16,29.98,21,4,21,0.00
2014-12-1,58.7,37.4,31.9,57.0,24.2,16.0,97,59,47,30.50,30.15,21,5,21,0.00
2014-12-2,50.3,42.4,34.3,44.0,27.6,16.0,86,56,42,30.46,30.18,12,3,12,0.00
2014-12-3,62.8,54.2,48.2,56.0,51.1,44.0,97,90,78,30.21,30.10,14,4,14,0.00
2014-12-4,70.5,61.4,55.5,60.0,58.0,55.0,100,91,60,30.21,30.05,19,4,19,0.00
2014-12-5,78.4,65.7,54.8,64.0,56.8,48.0,100,77,44,30.29,30.05,22,4,23,0.00
2014-12-6,66.4,55.5,47.5,51.0,47.6,42.0,96,77,51,30.45,30.29,14,4,14,0.00
2014-12-7,52.6,49.0,45.1,48.0,46.3,44.0,98,91,83,30.43,30.26,10,2,11,0.00
2014-12-8,67.4,51.0,38.6,53.0,45.8,39.0,100,85,53,30.41,30.29,10,2,11,0.00
2014-12-9,67.6,52.5,39.2,56.0,46.1,39.0,100,82,49,30.41,30.26,10,2,10,0.00
2014-12-10,62.7,56.4,48.3,53.0,47.5,40.0,89,73,45,30.27,30.15,12,3,12,0.00
2014-12-11,60.7,57.8,54.8,59.0,56.5,52.0,99,96,87,30.25,30.17,11,3,11,0.00
2014-12-12,68.3,61.1,56.5,60.0,58.1,56.0,100,91,72,30.31,30.19,12,4,14,0.00
2014-12-13,66.0,59.0,52.7,59.0,55.8,53.0,100,91,76,30.25,30.06,14,4,19,0.00
2014-12-14,70.5,62.0,57.5,61.0,57.9,56.0,96,88,68,30.06,29.85,22,6,22,0.00
2014-12-15,65.5,55.0,45.3,57.0,39.0,31.0,96,58,30,30.25,29.95,15,3,16,0.00
2014-12-16,57.7,48.6,37.9,36.0,32.4,29.0,70,54,40,30.42,30.24,12,4,14,0.00
2014-12-17,49.9,47.0,45.6,48.0,39.7,35.0,99,77,56,30.28,30.08,16,4,16,0.00
2014-12-18,67.2,54.2,48.1,54.0,49.3,47.0,100,86,53,30.19,30.07,16,3,17,0.02
2014-12-19,51.1,46.7,44.5,47.0,44.4,43.0,98,93,82,30.25,30.13,11,3,12,0.04
2014-12-20,51.8,46.3,40.8,44.0,42.7,40.0,96,88,72,30.29,30.16,9,2,9,0.00
2014-12-21,58.0,48.8,40.9,48.0,44.9,40.0,97,87,69,30.19,29.81,20,4,20,0.00
2014-12-22,68.3,56.7,47.4,50.0,43.8,39.0,96,67,37,29.82,29.68,21,4,21,0.00
2014-12-23,53.6,45.2,37.5,44.0,37.4,32.0,97,76,54,30.06,29.72,22,5,22,0.27
2014-12-24,51.6,41.2,29.7,33.0,29.8,26.0,85,65,39,30.20,30.05,20,4,20,0.00
2014-12-25,62.9,46.8,30.3,37.0,28.1,24.0,85,52,25,30.06,29.92,27,6,27,0.00
2014-12-26,71.7,58.7,48.1,54.0,50.4,38.0,95,76,51,30.02,29.87,21,5,26,0.00
2014-12-27,55.4,40.8,33.0,54.0,34.9,26.0,97,79,68,30.34,30.01,25,6,25,0.00
2014-12-28,51.8,38.5,31.7,29.0,27.1,24.0,83,64,36,30.34,30.13,12,2,12,0.00
2014-12-29,64.0,45.0,27.4,41.0,33.9,24.0,95,69,36,30.19,30.03,13,2,13,0.00
2014-12-30,44.2,37.6,29.6,41.0,36.1,28.0,99,93,84,30.53,30.18,16,5,17,0.00
2014-12-31,29.5,26.8,23.3,28.0,23.1,21.0,89,84,79,30.58,30.38,15,4,15,0.00
2015-1-1,33.0,30.6,27.9,33.0,30.4,24.0,100,97,88,30.38,30.17,6,2,10,0.25
2015-1-2,35.5,33.9,32.2,36.0,34.0,32.0,100,100,100,30.23,28.73,12,3,13,0.56